Time;durP1;ratioP1;P1;durP2;ratioP2;P2;SDS_P1;SDS_P2;PMS_P1;PMS_P2;Temp;Humidity;BMP_temperature;BMP_pressure;BME280_temperature;BME280_humidity;BME280_pressure;Samples;Min_cycle;Max_cycle;Signal;HPM_P1;HPM_P2
2023/01/12 00:01:23;;;;;;;26.20;3.67;;;7.40;99.90;;;;;;4937646;28;20056;-71
2023/01/12 00:03:50;;;;;;;35.80;4.88;;;7.40;99.90;;;;;;4958692;28;20093;-71
2023/01/12 00:06:15;;;;;;;30.38;3.85;;;7.50;99.90;;;;;;4977121;28;20027;-71
2023/01/12 00:08:41;;;;;;;31.67;5.25;;;7.50;99.90;;;;;;4958958;28;20495;-71
2023/01/12 00:11:07;;;;;;;27.63;3.65;;;7.50;99.90;;;;;;4976356;28;20100;-70
2023/01/12 00:13:33;;;;;;;20.48;3.13;;;7.50;99.90;;;;;;4949342;28;20027;-71
2023/01/12 00:18:45;;;;;;;25.65;2.88;;;7.60;99.90;;;;;;4958534;28;20039;-71
2023/01/12 00:21:12;;;;;;;24.55;3.05;;;7.50;99.90;;;;;;4964400;28;20526;-71
2023/01/12 00:23:41;;;;;;;30.58;3.47;;;7.50;99.90;;;;;;4963821;28;21788;-71
2023/01/12 00:26:07;;;;;;;22.25;2.92;;;7.60;99.90;;;;;;4953184;28;20126;-72
2023/01/12 00:28:37;;;;;;;33.35;3.55;;;7.60;99.90;;;;;;4964333;28;20122;-71
2023/01/12 00:31:09;;;;;;;32.65;3.65;;;7.60;99.90;;;;;;4954145;28;20043;-72
2023/01/12 00:33:37;;;;;;;27.20;3.13;;;7.60;99.90;;;;;;4954981;28;20044;-71
2023/01/12 00:36:10;;;;;;;36.53;4.57;;;7.60;99.90;;;;;;4952272;28;20300;-70
2023/01/12 00:38:37;;;;;;;29.40;4.10;;;7.60;99.90;;;;;;4966054;28;20031;-72
2023/01/12 00:45:20;;;;;;;33.70;4.47;;;7.60;99.90;;;;;;4946148;28;20122;-72
2023/01/12 00:46:46;;;;;;;29.08;3.90;;;7.60;99.90;;;;;;4959267;28;20050;-71
2023/01/12 00:49:11;;;;;;;34.63;3.70;;;7.80;99.90;;;;;;4965364;28;20055;-72
2023/01/12 00:51:37;;;;;;;23.98;2.97;;;7.60;99.90;;;;;;4956672;28;20047;-71
2023/01/12 00:54:03;;;;;;;29.33;3.75;;;7.70;99.90;;;;;;4954159;28;20412;-71
2023/01/12 00:56:32;;;;;;;24.98;3.40;;;7.60;99.90;;;;;;4939287;28;20118;-72
2023/01/12 00:58:58;;;;;;;27.02;3.42;;;7.70;99.90;;;;;;4962356;28;20083;-71
2023/01/12 01:01:27;;;;;;;24.63;3.10;;;7.70;99.90;;;;;;4984612;28;20079;-72
2023/01/12 01:03:56;;;;;;;31.58;3.40;;;7.60;99.90;;;;;;4959521;28;20113;-72
2023/01/12 01:06:22;;;;;;;21.23;3.05;;;7.60;99.90;;;;;;4933086;28;20075;-72
2023/01/12 01:08:47;;;;;;;23.58;3.03;;;7.60;99.90;;;;;;4963527;28;20082;-71
2023/01/12 01:11:14;;;;;;;29.88;3.30;;;7.70;99.90;;;;;;4961287;28;20097;-71
2023/01/12 01:13:42;;;;;;;21.55;3.40;;;7.70;99.90;;;;;;4957009;28;20118;-72
2023/01/12 01:16:11;;;;;;;22.98;3.70;;;7.60;99.90;;;;;;4960338;28;20539;-72
2023/01/12 01:18:37;;;;;;;24.98;3.05;;;7.70;99.90;;;;;;4965914;28;20051;-72
2023/01/12 01:21:04;;;;;;;32.47;4.05;;;7.60;99.90;;;;;;4961992;28;20049;-71
2023/01/12 01:23:33;;;;;;;18.98;2.90;;;7.60;99.90;;;;;;4963566;28;20058;-71
2023/01/12 01:26:12;;;;;;;26.42;3.78;;;7.60;99.90;;;;;;4954313;28;20050;-71
2023/01/12 01:28:38;;;;;;;30.35;3.22;;;7.70;99.90;;;;;;4962601;28;20054;-71
2023/01/12 01:31:11;;;;;;;24.73;3.58;;;7.70;99.90;;;;;;4963431;28;20618;-71
2023/01/12 01:33:37;;;;;;;28.08;4.00;;;7.70;99.90;;;;;;4932719;28;20078;-71
2023/01/12 01:36:03;;;;;;;22.40;3.85;;;7.70;99.90;;;;;;4932040;28;20047;-71
2023/01/12 01:38:29;;;;;;;28.33;3.00;;;7.70;99.90;;;;;;4957274;28;20102;-71
2023/01/12 01:40:55;;;;;;;25.55;3.90;;;7.70;99.90;;;;;;4948444;28;20478;-71
2023/01/12 01:43:24;;;;;;;32.17;3.08;;;7.70;99.90;;;;;;4958177;28;20492;-71
2023/01/12 01:46:08;;;;;;;21.25;3.38;;;7.80;99.90;;;;;;4953175;28;20054;-71
2023/01/12 01:48:37;;;;;;;21.65;3.33;;;7.70;99.90;;;;;;4966383;28;20397;-71
2023/01/12 01:51:07;;;;;;;28.08;3.58;;;7.80;99.90;;;;;;4963034;28;20467;-72
2023/01/12 01:53:36;;;;;;;26.60;3.28;;;7.80;99.90;;;;;;4938489;28;20501;-71
2023/01/12 01:56:08;;;;;;;26.73;3.42;;;7.80;99.90;;;;;;4962639;28;20047;-72
2023/01/12 01:58:57;;;;;;;16.48;2.85;;;7.80;99.90;;;;;;4951749;28;20489;-72
2023/01/12 02:01:23;;;;;;;21.92;3.83;;;7.80;99.90;;;;;;4952228;28;20063;-72
2023/01/12 02:03:52;;;;;;;28.08;4.47;;;7.80;99.90;;;;;;4954494;28;20042;-73
2023/01/12 02:06:19;;;;;;;24.45;3.15;;;7.80;99.90;;;;;;4949542;28;20251;-72
2023/01/12 02:09:00;;;;;;;13.02;2.55;;;7.80;99.90;;;;;;4962594;28;20089;-72
2023/01/12 02:17:21;;;;;;;32.72;4.18;;;7.80;99.90;;;;;;4951942;28;20075;-72
2023/01/12 02:20:25;;;;;;;22.85;4.15;;;7.90;99.90;;;;;;4954047;28;20088;-72
2023/01/12 02:23:22;;;;;;;30.45;3.95;;;7.80;99.90;;;;;;4953832;28;20987;-72
2023/01/12 02:26:06;;;;;;;23.77;3.38;;;7.80;99.90;;;;;;4954413;28;20133;-72
2023/01/12 02:28:50;;;;;;;19.80;3.03;;;7.90;99.90;;;;;;4951854;28;20499;-72
2023/01/12 02:31:30;;;;;;;33.85;4.75;;;7.90;99.90;;;;;;4955678;28;20038;-71
2023/01/12 02:34:39;;;;;;;22.58;3.30;;;7.90;99.90;;;;;;4941734;28;20130;-71
2023/01/12 02:37:25;;;;;;;29.23;5.07;;;7.90;99.90;;;;;;4941052;28;20058;-71
2023/01/12 02:40:20;;;;;;;25.17;3.70;;;7.90;99.90;;;;;;4967132;28;20626;-71
2023/01/12 02:43:05;;;;;;;26.98;3.47;;;7.90;99.90;;;;;;4928105;28;20047;-75
2023/01/12 02:46:14;;;;;;;31.65;4.22;;;8.00;99.90;;;;;;4945061;28;20062;-75
2023/01/12 02:48:57;;;;;;;24.95;4.05;;;8.00;99.90;;;;;;4931239;28;20063;-76
2023/01/12 02:51:39;;;;;;;28.25;3.80;;;7.90;99.90;;;;;;4967879;28;20046;-76
2023/01/12 02:54:11;;;;;;;33.03;4.50;;;7.90;99.90;;;;;;4965057;28;20084;-74
2023/01/12 02:56:42;;;;;;;27.25;3.65;;;8.00;99.90;;;;;;4961292;28;20046;-75
2023/01/12 02:59:17;;;;;;;24.38;3.83;;;8.00;99.90;;;;;;4959426;28;20055;-75
2023/01/12 03:01:47;;;;;;;28.25;3.67;;;7.90;99.90;;;;;;4943877;28;20059;-76
2023/01/12 03:04:15;;;;;;;37.10;3.97;;;7.90;99.90;;;;;;4942206;28;20061;-76
2023/01/12 03:07:28;;;;;;;27.42;4.72;;;8.00;99.90;;;;;;4962693;28;20481;-75
2023/01/12 03:10:04;;;;;;;30.20;4.90;;;8.00;99.90;;;;;;4957294;28;20055;-75
2023/01/12 03:12:33;;;;;;;30.60;4.32;;;8.00;99.90;;;;;;4963458;28;20059;-75
2023/01/12 03:15:05;;;;;;;26.17;3.80;;;8.00;99.90;;;;;;4959495;28;20160;-75
2023/01/12 03:17:44;;;;;;;35.33;4.10;;;8.00;99.90;;;;;;4960507;28;20576;-75
2023/01/12 03:20:18;;;;;;;38.47;4.18;;;8.10;99.90;;;;;;4943003;28;20047;-76
2023/01/12 03:22:47;;;;;;;29.20;4.60;;;8.00;99.90;;;;;;4937615;28;20054;-75
2023/01/12 03:25:16;;;;;;;34.92;4.20;;;8.10;99.90;;;;;;4959594;28;20039;-76
2023/01/12 03:27:47;;;;;;;33.15;4.57;;;8.10;99.90;;;;;;4959317;28;20050;-71
2023/01/12 03:30:35;;;;;;;24.20;3.80;;;8.10;99.90;;;;;;4959989;28;20051;-72
2023/01/12 03:33:02;;;;;;;30.85;3.83;;;8.10;99.90;;;;;;4954627;28;20074;-71
2023/01/12 03:35:34;;;;;;;30.52;4.93;;;8.10;99.90;;;;;;4944652;28;20130;-72
2023/01/12 03:38:08;;;;;;;27.98;4.18;;;8.10;99.90;;;;;;4957916;28;20588;-70
2023/01/12 03:40:44;;;;;;;26.50;4.25;;;8.00;99.90;;;;;;4941037;28;20102;-71
2023/01/12 03:43:20;;;;;;;29.73;4.00;;;8.20;99.90;;;;;;4950349;28;20138;-71
2023/01/12 03:45:57;;;;;;;27.10;3.92;;;8.20;99.90;;;;;;4958086;28;20055;-70
2023/01/12 03:48:51;;;;;;;22.30;3.65;;;8.20;99.90;;;;;;4962921;28;20043;-71
2023/01/12 03:51:22;;;;;;;27.42;4.15;;;8.20;99.90;;;;;;4941591;28;20063;-71
2023/01/12 03:53:51;;;;;;;27.70;3.88;;;8.30;99.90;;;;;;4949815;28;20110;-71
2023/01/12 03:56:19;;;;;;;32.13;5.00;;;8.30;99.90;;;;;;4932490;28;20069;-72
2023/01/12 03:58:46;;;;;;;27.05;3.63;;;8.30;99.90;;;;;;4956885;28;20046;-71
2023/01/12 04:01:13;;;;;;;33.60;3.88;;;8.30;99.90;;;;;;4965113;28;20130;-72
2023/01/12 04:03:38;;;;;;;33.22;3.80;;;8.30;99.90;;;;;;4963981;28;20460;-72
2023/01/12 04:06:04;;;;;;;27.92;4.25;;;8.30;99.90;;;;;;4960813;28;20046;-71
2023/01/12 04:08:30;;;;;;;28.80;3.97;;;8.40;99.90;;;;;;4967025;28;20043;-72
2023/01/12 04:10:56;;;;;;;23.73;3.22;;;8.40;99.90;;;;;;4942562;28;20053;-71
2023/01/12 04:13:22;;;;;;;32.45;3.55;;;8.40;99.90;;;;;;4964816;28;20083;-72
2023/01/12 04:15:48;;;;;;;30.13;3.88;;;8.40;99.90;;;;;;4943704;28;20464;-71
2023/01/12 04:18:13;;;;;;;22.50;3.90;;;8.40;99.90;;;;;;4959799;28;20054;-71
2023/01/12 04:20:39;;;;;;;31.20;3.65;;;8.40;99.90;;;;;;4937404;28;20035;-71
2023/01/12 04:23:06;;;;;;;23.55;3.90;;;8.40;99.90;;;;;;4933776;28;20047;-71
2023/01/12 04:25:32;;;;;;;31.63;4.05;;;8.40;99.90;;;;;;4964887;28;20124;-71
2023/01/12 04:28:02;;;;;;;24.83;3.28;;;8.40;99.90;;;;;;4955104;28;20047;-71
2023/01/12 04:30:30;;;;;;;21.30;2.75;;;8.40;99.90;;;;;;4941839;28;20058;-71
2023/01/12 04:32:56;;;;;;;23.52;3.10;;;8.40;99.90;;;;;;4971416;28;20118;-70
2023/01/12 04:35:23;;;;;;;20.60;3.00;;;8.40;99.90;;;;;;4966666;28;20078;-70
2023/01/12 04:37:50;;;;;;;14.85;2.33;;;8.40;99.90;;;;;;4950086;28;20683;-71
2023/01/12 04:40:17;;;;;;;16.23;3.00;;;8.40;99.90;;;;;;4949218;28;20464;-70
2023/01/12 04:43:00;;;;;;;19.55;2.92;;;8.30;99.90;;;;;;4947052;28;20050;-70
2023/01/12 04:45:30;;;;;;;16.00;2.17;;;8.30;99.90;;;;;;4968362;28;20438;-70
2023/01/12 04:48:10;;;;;;;15.82;2.80;;;8.30;99.90;;;;;;4937939;28;20043;-70
2023/01/12 04:50:37;;;;;;;15.70;2.88;;;8.30;99.90;;;;;;4964395;28;20054;-71
2023/01/12 04:53:05;;;;;;;13.43;2.08;;;8.40;99.90;;;;;;4962877;28;20120;-70
2023/01/12 04:55:34;;;;;;;13.45;2.63;;;8.30;99.90;;;;;;4963696;28;20586;-71
2023/01/12 04:57:59;;;;;;;11.20;2.20;;;8.30;99.90;;;;;;4962822;28;20058;-71
2023/01/12 05:00:25;;;;;;;14.75;2.45;;;8.30;99.90;;;;;;4962734;28;20043;-71
2023/01/12 05:02:58;;;;;;;11.80;1.95;;;8.30;99.90;;;;;;4962743;28;20055;-71
2023/01/12 05:05:25;;;;;;;11.65;1.80;;;8.20;99.90;;;;;;4958714;28;20401;-71
2023/01/12 05:10:34;;;;;;;15.18;2.40;;;8.20;99.90;;;;;;4955329;28;20058;-71
2023/01/12 05:13:00;;;;;;;12.38;2.20;;;8.20;99.90;;;;;;4959321;28;20499;-71
2023/01/12 05:15:26;;;;;;;11.35;2.28;;;8.20;99.90;;;;;;4962251;28;20721;-71
2023/01/12 05:17:53;;;;;;;14.48;2.08;;;8.20;99.90;;;;;;4957043;28;20051;-71
2023/01/12 05:20:20;;;;;;;8.35;1.85;;;8.20;99.90;;;;;;4941176;28;20088;-70
2023/01/12 05:22:47;;;;;;;12.05;2.33;;;8.20;99.90;;;;;;4953297;28;20054;-70
2023/01/12 05:25:13;;;;;;;10.98;1.35;;;8.20;99.90;;;;;;4956300;28;20050;-71
2023/01/12 05:27:39;;;;;;;9.43;1.83;;;8.20;99.90;;;;;;4956651;28;20270;-70
2023/01/12 05:30:06;;;;;;;7.63;1.25;;;8.20;99.90;;;;;;4963405;28;20059;-71
2023/01/12 05:32:37;;;;;;;8.80;1.52;;;8.20;99.90;;;;;;4953262;28;20130;-71
2023/01/12 05:35:04;;;;;;;7.47;1.50;;;8.20;99.90;;;;;;4939225;28;20444;-71
2023/01/12 05:37:30;;;;;;;6.43;1.80;;;8.20;99.90;;;;;;4957655;28;20054;-72
2023/01/12 05:39:56;;;;;;;6.47;1.48;;;8.20;99.90;;;;;;4953869;28;20074;-72
2023/01/12 05:45:06;;;;;;;7.68;1.67;;;8.20;99.90;;;;;;4950337;28;20526;-71
2023/01/12 05:47:32;;;;;;;7.30;1.65;;;8.20;99.90;;;;;;4939707;28;20043;-72
2023/01/12 05:49:58;;;;;;;7.50;1.80;;;8.20;99.90;;;;;;4951403;28;20043;-72
2023/01/12 05:52:24;;;;;;;4.38;1.77;;;8.20;99.90;;;;;;4951518;28;20043;-73
2023/01/12 05:54:50;;;;;;;4.53;1.52;;;8.20;99.90;;;;;;4955518;28;20059;-71
2023/01/12 05:57:16;;;;;;;5.25;1.40;;;8.10;99.90;;;;;;4952203;28;20575;-72
2023/01/12 05:59:41;;;;;;;4.60;1.23;;;8.40;99.90;;;;;;4947187;28;20503;-71
2023/01/12 06:02:10;;;;;;;5.78;1.40;;;8.20;99.90;;;;;;4948169;28;20148;-71
2023/01/12 06:04:37;;;;;;;4.57;1.35;;;8.20;99.90;;;;;;4956025;28;20073;-72
2023/01/12 06:07:03;;;;;;;7.90;1.77;;;8.20;99.90;;;;;;4957056;28;20496;-72
2023/01/12 06:09:28;;;;;;;5.45;1.27;;;8.20;99.90;;;;;;4960378;28;20050;-70
2023/01/12 06:14:39;;;;;;;4.90;1.10;;;8.30;99.90;;;;;;4946551;28;20523;-71
2023/01/12 06:17:05;;;;;;;3.78;1.30;;;8.20;99.90;;;;;;4947340;28;22065;-72
2023/01/12 06:19:30;;;;;;;4.95;1.25;;;8.30;99.90;;;;;;4945805;28;20042;-71
2023/01/12 06:21:58;;;;;;;5.97;1.05;;;8.30;99.90;;;;;;4949381;28;20074;-71
2023/01/12 06:24:27;;;;;;;5.03;1.00;;;8.30;99.90;;;;;;4951112;28;20046;-72
2023/01/12 06:26:55;;;;;;;3.90;0.90;;;8.30;99.90;;;;;;4948739;28;20047;-71
2023/01/12 06:29:21;;;;;;;2.15;0.75;;;8.30;99.90;;;;;;4952690;28;20078;-71
2023/01/12 06:31:47;;;;;;;3.45;0.73;;;8.40;99.90;;;;;;4949931;28;20043;-71
2023/01/12 06:34:13;;;;;;;2.42;0.80;;;8.40;99.90;;;;;;4950834;28;20082;-70
2023/01/12 06:36:38;;;;;;;2.20;0.70;;;8.40;99.90;;;;;;4933571;28;20861;-72
2023/01/12 06:39:04;;;;;;;2.28;0.73;;;8.40;99.90;;;;;;4952104;28;20093;-70
2023/01/12 06:44:16;;;;;;;2.67;0.90;;;8.50;99.90;;;;;;4951952;28;20062;-71
2023/01/12 06:46:41;;;;;;;4.57;0.80;;;8.50;99.90;;;;;;4950109;28;20042;-71
2023/01/12 06:49:07;;;;;;;2.80;0.80;;;8.60;99.90;;;;;;4942212;28;20113;-71
2023/01/12 06:51:33;;;;;;;4.47;1.10;;;8.60;99.90;;;;;;4954637;28;20055;-70
2023/01/12 06:54:00;;;;;;;5.65;1.45;;;8.60;99.90;;;;;;4956107;28;20046;-72
2023/01/12 06:56:25;;;;;;;5.53;1.50;;;8.70;99.90;;;;;;4956922;28;20744;-71
2023/01/12 06:58:51;;;;;;;13.35;2.30;;;8.70;99.90;;;;;;4955066;28;20054;-71
2023/01/12 07:01:17;;;;;;;7.00;2.13;;;8.80;99.90;;;;;;4942920;28;20047;-71
2023/01/12 07:03:43;;;;;;;12.48;2.38;;;8.90;99.90;;;;;;4941019;28;20051;-71
2023/01/12 07:06:09;;;;;;;9.43;2.22;;;8.90;99.90;;;;;;4921766;29;20070;-71
2023/01/12 07:08:35;;;;;;;13.55;2.63;;;8.90;99.90;;;;;;4935705;28;20054;-71
2023/01/12 07:11:11;;;;;;;15.43;2.90;;;8.90;99.90;;;;;;4922854;29;20748;-72
2023/01/12 07:13:36;;;;;;;19.25;3.22;;;9.10;99.90;;;;;;4920732;28;20398;-71
2023/01/12 07:16:02;;;;;;;19.05;2.88;;;9.10;99.90;;;;;;4904007;29;20050;-71
2023/01/12 07:18:29;;;;;;;16.83;2.50;;;9.10;99.90;;;;;;4925035;28;20046;-73
2023/01/12 07:20:55;;;;;;;24.30;3.00;;;9.10;99.90;;;;;;4908598;29;20122;-72
2023/01/12 07:23:20;;;;;;;21.50;3.03;;;9.20;99.90;;;;;;4921621;28;20051;-72
2023/01/12 07:25:46;;;;;;;25.30;3.28;;;9.40;99.90;;;;;;4908817;29;20521;-70
2023/01/12 07:28:12;;;;;;;18.92;2.97;;;9.30;99.90;;;;;;4938464;28;20043;-71
2023/01/12 07:30:38;;;;;;;27.95;3.85;;;9.30;99.90;;;;;;4934845;28;20077;-71
2023/01/12 07:33:12;;;;;;;21.25;3.67;;;9.40;99.90;;;;;;4938613;28;20541;-71
2023/01/12 07:35:38;;;;;;;22.77;3.42;;;9.40;99.90;;;;;;4920819;28;20055;-71
2023/01/12 07:38:05;;;;;;;23.55;3.20;;;9.50;99.90;;;;;;4921647;29;20062;-71
2023/01/12 07:40:31;;;;;;;27.83;3.33;;;9.50;99.90;;;;;;4922556;29;20090;-71
2023/01/12 07:43:01;;;;;;;26.17;3.92;;;9.50;99.90;;;;;;4920015;28;20074;-70
2023/01/12 07:45:28;;;;;;;36.47;4.63;;;9.50;99.90;;;;;;4904685;29;20238;-72
2023/01/12 07:47:55;;;;;;;28.60;4.57;;;9.60;99.90;;;;;;4919602;29;20771;-73
2023/01/12 07:50:28;;;;;;;28.63;3.55;;;9.60;99.90;;;;;;4917927;28;20126;-72
2023/01/12 07:52:54;;;;;;;28.67;4.32;;;9.60;99.90;;;;;;4908030;28;20619;-71
2023/01/12 07:55:20;;;;;;;30.63;3.60;;;9.70;99.90;;;;;;4921120;28;20668;-72
2023/01/12 07:57:54;;;;;;;26.02;3.47;;;9.70;99.90;;;;;;4937220;28;21294;-71
2023/01/12 08:00:22;;;;;;;28.45;3.80;;;9.80;99.90;;;;;;4921919;28;20122;-71
2023/01/12 08:02:49;;;;;;;22.83;3.88;;;9.80;99.90;;;;;;4934459;28;20054;-72
2023/01/12 08:05:15;;;;;;;38.08;4.53;;;9.90;99.90;;;;;;4913594;29;20051;-73
2023/01/12 08:07:41;;;;;;;31.73;4.47;;;9.90;99.90;;;;;;4918820;29;20054;-70
2023/01/12 08:10:07;;;;;;;39.90;4.35;;;9.90;99.90;;;;;;4921067;29;20043;-72
2023/01/12 08:12:34;;;;;;;29.48;4.10;;;9.90;99.90;;;;;;4921641;29;20051;-76
2023/01/12 08:15:02;;;;;;;30.17;3.80;;;10.00;99.90;;;;;;4938198;28;20561;-76
2023/01/12 08:17:33;;;;;;;27.75;3.70;;;10.00;99.90;;;;;;4940450;28;20062;-76
2023/01/12 08:20:04;;;;;;;29.57;4.23;;;10.00;99.90;;;;;;4922944;28;20109;-75
2023/01/12 08:22:32;;;;;;;;;;;10.00;99.90;;;;;;4923880;29;20092;-74
2023/01/12 08:25:05;;;;;;;28.02;4.78;;;10.00;99.90;;;;;;4923923;29;19922;-74
2023/01/12 08:27:33;;;;;;;30.02;4.20;;;10.00;99.90;;;;;;4906896;29;20047;-76
2023/01/12 08:30:01;;;;;;;22.67;3.78;;;10.10;99.90;;;;;;4919924;29;20689;-74
2023/01/12 08:32:28;;;;;;;23.70;4.15;;;9.80;99.90;;;;;;4921232;29;20039;-74
2023/01/12 08:34:59;;;;;;;36.50;4.97;;;10.10;99.90;;;;;;4918114;29;20058;-74
2023/01/12 08:37:25;;;;;;;;;;;10.10;99.90;;;;;;4920767;28;20047;-74
2023/01/12 08:39:51;;;;;;;30.90;3.92;;;10.10;99.90;;;;;;4923301;29;19949;-75
2023/01/12 08:42:19;;;;;;;34.10;4.20;;;9.90;99.90;;;;;;4939392;28;20118;-75
2023/01/12 08:44:45;;;;;;;20.02;3.15;;;10.20;99.90;;;;;;4922762;28;20047;-74
2023/01/12 08:47:20;;;;;;;34.25;4.63;;;10.40;99.90;;;;;;4932180;29;20043;-75
2023/01/12 08:49:46;;;;;;;25.83;3.65;;;10.20;99.90;;;;;;4924792;28;20058;-75
2023/01/12 08:52:13;;;;;;;21.60;3.17;;;10.20;99.90;;;;;;4923115;29;20047;-74
2023/01/12 08:54:39;;;;;;;27.20;3.72;;;10.20;99.90;;;;;;4908596;28;20074;-75
2023/01/12 08:57:04;;;;;;;24.92;3.20;;;10.20;99.90;;;;;;4925756;28;20051;-73
2023/01/12 08:59:30;;;;;;;24.38;3.17;;;10.20;99.90;;;;;;4924223;28;20087;-75
2023/01/12 09:01:56;;;;;;;21.83;4.22;;;10.20;99.90;;;;;;4942562;28;20063;-75
2023/01/12 09:04:22;;;;;;;29.65;3.97;;;10.30;99.90;;;;;;4922723;29;20146;-75
2023/01/12 09:06:48;;;;;;;24.33;3.40;;;10.30;99.90;;;;;;4924022;29;20051;-75
2023/01/12 09:09:18;;;;;;;25.48;3.33;;;10.60;99.90;;;;;;4922438;29;20497;-71
2023/01/12 09:11:45;;;;;;;28.30;3.15;;;10.30;99.90;;;;;;4925318;28;20063;-71
2023/01/12 09:14:12;;;;;;;17.42;2.30;;;10.30;99.90;;;;;;4940964;28;20733;-72
2023/01/12 09:16:39;;;;;;;17.63;3.20;;;10.30;99.90;;;;;;4909147;29;20062;-73
2023/01/12 09:19:05;;;;;;;24.23;3.58;;;10.30;99.90;;;;;;4926936;28;20053;-72
2023/01/12 09:21:34;;;;;;;23.15;2.97;;;10.30;99.90;;;;;;4922978;29;20721;-71
2023/01/12 09:24:00;;;;;;;24.85;3.22;;;10.30;99.90;;;;;;4927935;28;20544;-73
2023/01/12 09:26:30;;;;;;;26.90;3.92;;;10.40;99.90;;;;;;4921880;29;20050;-73
2023/01/12 09:28:58;;;;;;;28.05;3.92;;;10.40;99.90;;;;;;4925180;28;20074;-71
2023/01/12 09:31:24;;;;;;;25.42;2.97;;;10.40;99.90;;;;;;4924651;28;20091;-72
2023/01/12 09:33:52;;;;;;;27.80;3.85;;;10.40;99.90;;;;;;4921550;28;20170;-71
2023/01/12 09:36:21;;;;;;;23.73;3.25;;;10.70;99.90;;;;;;4940603;28;20465;-71
2023/01/12 09:38:47;;;;;;;22.75;3.17;;;10.40;99.90;;;;;;4941360;28;20151;-73
2023/01/12 09:47:49;;;;;;;25.15;3.30;;;10.40;99.90;;;;;;4919342;28;20055;-72
2023/01/12 09:50:23;;;;;;;23.27;3.30;;;10.40;99.90;;;;;;4939514;28;20054;-73
2023/01/12 09:52:59;;;;;;;18.67;2.70;;;10.50;99.90;;;;;;4921329;28;20338;-72
2023/01/12 09:55:28;;;;;;;25.30;3.33;;;10.50;99.90;;;;;;4918241;29;20054;-71
2023/01/12 09:58:46;;;;;;;19.15;3.22;;;10.50;99.90;;;;;;4921376;29;21204;-72
2023/01/12 10:01:14;;;;;;;26.23;3.15;;;10.50;99.90;;;;;;4869262;28;20055;-71
2023/01/12 10:03:42;;;;;;;21.83;3.80;;;10.50;99.90;;;;;;4955825;28;20046;-72
2023/01/12 10:06:19;;;;;;;21.70;3.08;;;10.50;99.90;;;;;;4955136;28;20049;-73
2023/01/12 10:08:47;;;;;;;30.08;3.67;;;10.50;99.90;;;;;;4936927;28;20054;-72
2023/01/12 10:11:32;;;;;;;24.73;3.38;;;10.50;99.90;;;;;;4952039;28;20055;-72
2023/01/12 10:14:16;;;;;;;20.63;3.45;;;10.50;99.90;;;;;;4957345;28;20055;-72
2023/01/12 10:17:10;;;;;;;23.73;3.42;;;10.60;99.90;;;;;;4953208;28;20114;-72
2023/01/12 10:19:45;;;;;;;18.60;2.92;;;10.20;99.90;;;;;;4955559;28;20043;-72
2023/01/12 10:22:38;;;;;;;18.70;3.42;;;10.60;99.90;;;;;;4954728;28;20050;-71
2023/01/12 10:25:33;;;;;;;19.58;3.08;;;10.60;99.90;;;;;;4950175;28;20097;-71
2023/01/12 10:28:05;;;;;;;23.58;3.35;;;10.60;99.90;;;;;;4945151;28;20121;-72
2023/01/12 10:30:33;;;;;;;24.85;4.20;;;10.60;99.90;;;;;;4943031;28;20051;-71
2023/01/12 10:33:20;;;;;;;22.58;3.30;;;10.60;99.90;;;;;;4925220;28;20408;-71
2023/01/12 10:36:07;;;;;;;19.00;2.88;;;10.70;99.90;;;;;;4925114;28;20063;-71
2023/01/12 10:38:37;;;;;;;16.98;2.67;;;10.60;99.90;;;;;;4939177;28;20054;-72
2023/01/12 10:41:11;;;;;;;18.33;2.38;;;10.60;99.90;;;;;;4940507;28;20050;-71
2023/01/12 10:43:40;;;;;;;17.50;2.83;;;10.60;99.90;;;;;;4945891;28;20060;-72
2023/01/12 10:46:12;;;;;;;25.77;3.33;;;10.60;99.90;;;;;;4939440;28;21497;-71
2023/01/12 10:48:42;;;;;;;22.98;2.95;;;10.60;99.90;;;;;;4940122;28;20117;-71
2023/01/12 10:51:18;;;;;;;24.00;2.92;;;10.60;99.90;;;;;;4927046;28;20115;-72
2023/01/12 10:53:48;;;;;;;23.60;3.08;;;10.60;99.90;;;;;;4960937;28;20058;-73
2023/01/12 10:56:28;;;;;;;17.27;2.55;;;10.60;99.90;;;;;;4943577;28;20157;-71
2023/01/12 10:59:12;;;;;;;19.05;3.42;;;10.60;99.90;;;;;;4944516;28;20142;-72
2023/01/12 11:02:12;;;;;;;22.83;2.75;;;10.50;99.90;;;;;;4939235;28;20051;-72
2023/01/12 11:04:38;;;;;;;30.08;3.40;;;10.50;99.90;;;;;;4926347;28;20054;-71
2023/01/12 11:07:29;;;;;;;21.05;3.28;;;10.50;99.90;;;;;;4939942;28;20078;-72
2023/01/12 11:10:31;;;;;;;;;;;10.50;99.90;;;;;;4936374;28;20137;-72
2023/01/12 11:13:02;;;;;;;21.98;2.67;;;10.60;99.90;;;;;;4919473;29;19969;-72
2023/01/12 11:15:28;;;;;;;;;;;10.60;99.90;;;;;;4925099;28;20054;-69
2023/01/12 11:18:03;;;;;;;23.50;3.08;;;10.60;99.90;;;;;;4949054;28;19937;-71
2023/01/12 11:20:36;;;;;;;21.00;2.97;;;10.70;99.90;;;;;;4944576;28;20590;-71
2023/01/12 11:23:09;;;;;;;28.50;3.40;;;10.70;99.90;;;;;;4939279;28;20077;-71
2023/01/12 11:25:47;;;;;;;19.90;3.78;;;10.70;99.90;;;;;;4942533;28;20603;-71
2023/01/12 11:28:22;;;;;;;22.35;3.97;;;10.70;99.90;;;;;;4937006;28;20054;-71
2023/01/12 11:31:04;;;;;;;21.90;3.10;;;10.70;99.90;;;;;;4935388;28;20847;-71
2023/01/12 11:33:36;;;;;;;;;;;10.70;99.90;;;;;;4940456;28;20074;-72
2023/01/12 11:36:10;;;;;;;25.00;3.50;;;10.80;99.90;;;;;;4940122;28;19985;-71
2023/01/12 11:38:47;;;;;;;23.30;3.70;;;10.80;99.90;;;;;;4940206;28;20085;-70
2023/01/12 11:43:47;;;;;;;23.40;3.22;;;10.80;99.90;;;;;;4957683;28;20373;-71
2023/01/12 11:44:43;;;;;;;20.77;2.80;;;10.80;99.90;;;;;;4930928;28;20050;-69
2023/01/12 11:47:45;;;;;;;30.10;3.53;;;10.90;99.90;;;;;;4939243;28;20134;-72
2023/01/12 11:50:29;;;;;;;16.40;3.17;;;10.90;99.90;;;;;;4935928;28;20061;-71
2023/01/12 11:52:56;;;;;;;23.00;2.72;;;10.90;99.90;;;;;;4926519;28;20055;-71
2023/01/12 11:55:52;;;;;;;17.75;3.05;;;11.00;99.90;;;;;;4947382;28;20054;-72
2023/01/12 11:58:37;;;;;;;18.00;2.28;;;11.00;99.90;;;;;;4965338;28;20058;-71
2023/01/12 12:01:05;;;;;;;20.05;2.40;;;11.00;99.90;;;;;;4953262;28;20125;-71
2023/01/12 12:03:37;;;;;;;16.92;2.22;;;11.10;99.90;;;;;;4954234;28;20050;-71
2023/01/12 12:06:20;;;;;;;19.38;2.70;;;11.10;99.90;;;;;;4955956;28;20420;-72
2023/01/12 12:09:07;;;;;;;21.10;3.22;;;11.10;99.90;;;;;;4955243;28;20054;-73
2023/01/12 12:12:25;;;;;;;18.85;3.13;;;11.10;99.90;;;;;;4955577;28;20142;-72
2023/01/12 12:15:06;;;;;;;20.83;2.65;;;11.10;99.90;;;;;;4882121;29;20115;-72
2023/01/12 12:17:37;;;;;;;19.67;2.95;;;11.10;99.90;;;;;;4953116;28;20527;-72
2023/01/12 12:20:03;;;;;;;19.70;2.80;;;11.10;99.90;;;;;;4956956;28;20047;-72
2023/01/12 12:22:58;;;;;;;15.40;2.65;;;11.10;99.90;;;;;;4959421;28;20081;-71
2023/01/12 12:25:32;;;;;;;20.30;3.00;;;11.10;99.90;;;;;;4960148;28;20043;-72
2023/01/12 12:28:17;;;;;;;25.23;2.78;;;11.10;99.90;;;;;;4951498;28;20058;-72
2023/01/12 12:31:03;;;;;;;17.42;2.75;;;11.10;99.90;;;;;;4949107;28;20174;-75
2023/01/12 12:34:09;;;;;;;16.10;2.40;;;11.10;99.90;;;;;;4959276;28;20133;-75
2023/01/12 12:36:40;;;;;;;17.65;2.45;;;11.10;99.90;;;;;;4928030;28;20089;-75
2023/01/12 12:39:34;;;;;;;16.17;2.83;;;11.10;99.90;;;;;;4958171;28;20051;-75
2023/01/12 12:45:16;;;;;;;21.67;3.03;;;11.00;99.90;;;;;;4956510;28;20085;-75
2023/01/12 12:48:15;;;;;;;19.65;2.85;;;11.00;99.90;;;;;;4968458;28;20117;-74
2023/01/12 12:50:54;;;;;;;19.45;3.33;;;11.00;99.90;;;;;;4951902;28;20611;-74
2023/01/12 12:53:34;;;;;;;21.27;3.55;;;11.00;99.90;;;;;;4953259;28;20070;-74
2023/01/12 12:56:03;;;;;;;19.17;3.00;;;11.00;99.90;;;;;;4953317;28;20067;-75
2023/01/12 12:58:44;;;;;;;23.52;3.75;;;10.90;99.90;;;;;;4956000;28;20042;-75
2023/01/12 13:01:19;;;;;;;22.90;3.42;;;11.00;99.90;;;;;;4950025;28;20051;-75
2023/01/12 13:03:56;;;;;;;25.15;3.58;;;11.00;99.90;;;;;;4957573;28;20078;-72
2023/01/12 13:06:33;;;;;;;21.02;3.58;;;11.00;99.90;;;;;;4957525;28;22270;-74
2023/01/12 13:09:20;;;;;;;23.55;2.92;;;11.00;99.90;;;;;;4958205;28;20051;-73
2023/01/12 13:11:59;;;;;;;20.05;3.20;;;11.00;99.90;;;;;;4952340;28;20583;-74
2023/01/12 13:14:35;;;;;;;25.48;2.88;;;11.00;99.90;;;;;;4971949;28;20050;-74
2023/01/12 13:17:19;;;;;;;26.38;3.10;;;11.00;99.90;;;;;;4956607;28;20047;-74
2023/01/12 13:19:47;;;;;;;22.05;3.13;;;11.00;99.90;;;;;;4953462;28;20055;-72
2023/01/12 13:22:31;;;;;;;23.63;2.90;;;11.00;99.90;;;;;;4956848;28;20046;-72
2023/01/12 13:25:01;;;;;;;28.15;3.83;;;11.00;99.90;;;;;;4958474;28;20614;-73
2023/01/12 13:27:58;;;;;;;28.08;3.83;;;11.00;99.90;;;;;;4939312;28;20035;-73
2023/01/12 13:30:27;;;;;;;21.80;3.42;;;11.00;99.90;;;;;;4957370;28;20043;-73
2023/01/12 13:33:24;;;;;;;19.05;3.35;;;11.00;99.90;;;;;;4932956;28;20819;-72
2023/01/12 13:35:50;;;;;;;26.42;3.80;;;11.00;99.90;;;;;;4967959;28;20042;-72
2023/01/12 13:38:27;;;;;;;25.95;3.47;;;11.00;99.90;;;;;;4939372;28;20073;-72
2023/01/12 13:41:13;;;;;;;20.17;3.00;;;11.00;99.90;;;;;;4955217;28;20468;-73
2023/01/12 13:43:48;;;;;;;23.40;3.33;;;11.00;99.90;;;;;;4929116;28;20080;-72
2023/01/12 13:46:14;;;;;;;29.27;4.03;;;11.00;99.90;;;;;;4955153;28;20637;-72